Aviation Digital Data Service (ADDS)

Output produced by METARs form (2317 UTC 05 July 2015)
found at http://aviationweather.gov/adds/metars/
 
KMHT 051735Z 0518/0618 24006KT P6SM FEW050 
     FM060100 VRB03KT P6SM SKC